sensor_id;sensor_type;location;lat;lon;timestamp;temperature;humidity
31113;DHT22;17763;48.730;9.136;2023-05-10T00:01:11;13.70;99.90
31113;DHT22;17763;48.730;9.136;2023-05-10T00:03:37;13.70;99.90
31113;DHT22;17763;48.730;9.136;2023-05-10T00:06:02;13.60;99.90
31113;DHT22;17763;48.730;9.136;2023-05-10T00:08:28;13.60;99.90
31113;DHT22;17763;48.730;9.136;2023-05-10T00:10:54;13.60;99.90
31113;DHT22;17763;48.730;9.136;2023-05-10T00:13:19;13.60;99.90
31113;DHT22;17763;48.730;9.136;2023-05-10T00:15:45;13.50;99.90
31113;DHT22;17763;48.730;9.136;2023-05-10T00:18:10;13.40;99.90
31113;DHT22;17763;48.730;9.136;2023-05-10T00:20:36;13.40;99.90
31113;DHT22;17763;48.730;9.136;2023-05-10T00:23:02;13.30;99.90
31113;DHT22;17763;48.730;9.136;2023-05-10T00:25:27;13.20;99.90
31113;DHT22;17763;48.730;9.136;2023-05-10T00:27:53;13.20;99.90
31113;DHT22;17763;48.730;9.136;2023-05-10T00:30:20;13.10;99.90
31113;DHT22;17763;48.730;9.136;2023-05-10T00:32:46;13.00;99.90
31113;DHT22;17763;48.730;9.136;2023-05-10T00:35:13;13.00;99.90
31113;DHT22;17763;48.730;9.136;2023-05-10T00:37:39;13.00;99.90
31113;DHT22;17763;48.730;9.136;2023-05-10T00:40:05;13.00;99.90
31113;DHT22;17763;48.730;9.136;2023-05-10T00:42:31;12.90;99.90
31113;DHT22;17763;48.730;9.136;2023-05-10T00:44:59;12.90;99.90
31113;DHT22;17763;48.730;9.136;2023-05-10T00:47:25;12.80;99.90
31113;DHT22;17763;48.730;9.136;2023-05-10T00:49:51;12.80;99.90
31113;DHT22;17763;48.730;9.136;2023-05-10T00:52:17;12.80;99.90
31113;DHT22;17763;48.730;9.136;2023-05-10T00:54:45;12.70;99.90
31113;DHT22;17763;48.730;9.136;2023-05-10T00:57:11;12.80;99.90
31113;DHT22;17763;48.730;9.136;2023-05-10T00:59:37;12.70;99.90
31113;DHT22;17763;48.730;9.136;2023-05-10T01:02:05;12.70;99.90
31113;DHT22;17763;48.730;9.136;2023-05-10T01:04:32;12.70;99.90
31113;DHT22;17763;48.730;9.136;2023-05-10T01:06:58;12.70;99.90
31113;DHT22;17763;48.730;9.136;2023-05-10T01:12:52;12.60;99.90
31113;DHT22;17763;48.730;9.136;2023-05-10T01:15:18;12.70;99.90
31113;DHT22;17763;48.730;9.136;2023-05-10T01:17:47;12.60;99.90
31113;DHT22;17763;48.730;9.136;2023-05-10T01:20:14;12.50;99.90
31113;DHT22;17763;48.730;9.136;2023-05-10T01:29:35;12.40;99.90
31113;DHT22;17763;48.730;9.136;2023-05-10T01:34:35;12.50;99.90
31113;DHT22;17763;48.730;9.136;2023-05-10T01:37:09;12.50;99.90
31113;DHT22;17763;48.730;9.136;2023-05-10T01:39:56;12.40;99.90
31113;DHT22;17763;48.730;9.136;2023-05-10T01:42:26;12.40;99.90
31113;DHT22;17763;48.730;9.136;2023-05-10T01:47:41;12.40;99.90
31113;DHT22;17763;48.730;9.136;2023-05-10T01:50:15;12.40;99.90
31113;DHT22;17763;48.730;9.136;2023-05-10T01:52:42;12.30;99.90
31113;DHT22;17763;48.730;9.136;2023-05-10T01:55:15;12.30;99.90
31113;DHT22;17763;48.730;9.136;2023-05-10T01:57:46;12.30;99.90
31113;DHT22;17763;48.730;9.136;2023-05-10T02:00:14;12.30;99.90
31113;DHT22;17763;48.730;9.136;2023-05-10T02:02:47;12.30;99.90
31113;DHT22;17763;48.730;9.136;2023-05-10T02:05:15;12.30;99.90
31113;DHT22;17763;48.730;9.136;2023-05-10T02:07:42;12.20;99.90
31113;DHT22;17763;48.730;9.136;2023-05-10T02:10:09;12.20;99.90
31113;DHT22;17763;48.730;9.136;2023-05-10T02:12:37;12.20;99.90
31113;DHT22;17763;48.730;9.136;2023-05-10T02:15:05;12.20;99.90
31113;DHT22;17763;48.730;9.136;2023-05-10T02:17:32;12.20;99.90
31113;DHT22;17763;48.730;9.136;2023-05-10T02:20:03;12.20;99.90
31113;DHT22;17763;48.730;9.136;2023-05-10T02:22:31;12.20;99.90
31113;DHT22;17763;48.730;9.136;2023-05-10T02:24:58;12.20;99.90
31113;DHT22;17763;48.730;9.136;2023-05-10T02:27:26;12.20;99.90
31113;DHT22;17763;48.730;9.136;2023-05-10T02:29:56;12.20;99.90
31113;DHT22;17763;48.730;9.136;2023-05-10T02:32:24;12.20;99.90
31113;DHT22;17763;48.730;9.136;2023-05-10T02:34:52;12.20;99.90
31113;DHT22;17763;48.730;9.136;2023-05-10T02:37:20;12.20;99.90
31113;DHT22;17763;48.730;9.136;2023-05-10T02:39:50;12.20;99.90
31113;DHT22;17763;48.730;9.136;2023-05-10T02:42:19;12.20;99.90
31113;DHT22;17763;48.730;9.136;2023-05-10T02:44:50;12.20;99.90
31113;DHT22;17763;48.730;9.136;2023-05-10T02:47:17;12.20;99.90
31113;DHT22;17763;48.730;9.136;2023-05-10T02:49:43;12.20;99.90
31113;DHT22;17763;48.730;9.136;2023-05-10T02:52:09;12.20;99.90
31113;DHT22;17763;48.730;9.136;2023-05-10T02:54:49;12.20;99.90
31113;DHT22;17763;48.730;9.136;2023-05-10T02:57:17;12.20;99.90
31113;DHT22;17763;48.730;9.136;2023-05-10T02:59:47;12.20;99.90
31113;DHT22;17763;48.730;9.136;2023-05-10T03:02:13;12.10;99.90
31113;DHT22;17763;48.730;9.136;2023-05-10T03:04:39;12.20;99.90
31113;DHT22;17763;48.730;9.136;2023-05-10T03:07:07;12.10;99.90
31113;DHT22;17763;48.730;9.136;2023-05-10T03:09:33;12.10;99.90
31113;DHT22;17763;48.730;9.136;2023-05-10T03:12:10;12.20;99.90
31113;DHT22;17763;48.730;9.136;2023-05-10T03:15:00;12.20;99.90
31113;DHT22;17763;48.730;9.136;2023-05-10T03:17:59;12.20;99.90
31113;DHT22;17763;48.730;9.136;2023-05-10T03:20:51;12.20;99.90
31113;DHT22;17763;48.730;9.136;2023-05-10T03:23:27;12.30;99.90
31113;DHT22;17763;48.730;9.136;2023-05-10T03:25:55;12.20;99.90
31113;DHT22;17763;48.730;9.136;2023-05-10T03:28:25;12.20;99.90
31113;DHT22;17763;48.730;9.136;2023-05-10T03:30:52;12.20;99.90
31113;DHT22;17763;48.730;9.136;2023-05-10T03:33:19;12.20;99.90
31113;DHT22;17763;48.730;9.136;2023-05-10T03:35:45;12.20;99.90
31113;DHT22;17763;48.730;9.136;2023-05-10T03:38:14;12.20;99.90
31113;DHT22;17763;48.730;9.136;2023-05-10T03:40:41;12.20;99.90
31113;DHT22;17763;48.730;9.136;2023-05-10T03:43:07;12.10;99.90
31113;DHT22;17763;48.730;9.136;2023-05-10T03:45:33;12.10;99.90
31113;DHT22;17763;48.730;9.136;2023-05-10T03:48:01;12.10;99.90
31113;DHT22;17763;48.730;9.136;2023-05-10T03:50:27;12.10;99.90
31113;DHT22;17763;48.730;9.136;2023-05-10T03:52:53;12.10;99.90
31113;DHT22;17763;48.730;9.136;2023-05-10T03:55:18;12.10;99.90
31113;DHT22;17763;48.730;9.136;2023-05-10T03:57:44;12.10;99.90
31113;DHT22;17763;48.730;9.136;2023-05-10T04:00:11;12.20;99.90
31113;DHT22;17763;48.730;9.136;2023-05-10T04:02:37;12.20;99.90
31113;DHT22;17763;48.730;9.136;2023-05-10T04:05:03;12.20;99.90
31113;DHT22;17763;48.730;9.136;2023-05-10T04:07:28;12.20;99.90
31113;DHT22;17763;48.730;9.136;2023-05-10T04:09:57;12.20;99.90
31113;DHT22;17763;48.730;9.136;2023-05-10T04:12:22;12.20;99.90
31113;DHT22;17763;48.730;9.136;2023-05-10T04:14:50;12.20;99.90
31113;DHT22;17763;48.730;9.136;2023-05-10T04:17:16;12.20;99.90
31113;DHT22;17763;48.730;9.136;2023-05-10T04:19:42;12.20;99.90
31113;DHT22;17763;48.730;9.136;2023-05-10T04:22:07;12.20;99.90
31113;DHT22;17763;48.730;9.136;2023-05-10T04:24:33;12.20;99.90
31113;DHT22;17763;48.730;9.136;2023-05-10T04:26:59;12.10;99.90
31113;DHT22;17763;48.730;9.136;2023-05-10T04:29:28;12.10;99.90
31113;DHT22;17763;48.730;9.136;2023-05-10T04:31:54;12.00;99.90
31113;DHT22;17763;48.730;9.136;2023-05-10T04:34:23;12.00;99.90
31113;DHT22;17763;48.730;9.136;2023-05-10T04:36:48;12.00;99.90
31113;DHT22;17763;48.730;9.136;2023-05-10T04:39:14;12.00;99.90
31113;DHT22;17763;48.730;9.136;2023-05-10T04:41:40;12.00;99.90
31113;DHT22;17763;48.730;9.136;2023-05-10T04:44:05;12.00;99.90
31113;DHT22;17763;48.730;9.136;2023-05-10T04:46:31;12.00;99.90
31113;DHT22;17763;48.730;9.136;2023-05-10T04:48:57;12.00;99.90
31113;DHT22;17763;48.730;9.136;2023-05-10T04:51:23;12.10;99.90
31113;DHT22;17763;48.730;9.136;2023-05-10T04:53:48;12.00;99.90
31113;DHT22;17763;48.730;9.136;2023-05-10T04:56:14;12.10;99.90
31113;DHT22;17763;48.730;9.136;2023-05-10T04:58:40;12.10;99.90
31113;DHT22;17763;48.730;9.136;2023-05-10T05:01:09;12.10;99.90
31113;DHT22;17763;48.730;9.136;2023-05-10T05:03:36;12.20;99.90
31113;DHT22;17763;48.730;9.136;2023-05-10T05:06:02;12.20;99.90
31113;DHT22;17763;48.730;9.136;2023-05-10T05:08:28;12.20;99.90
31113;DHT22;17763;48.730;9.136;2023-05-10T05:10:53;12.30;99.90
31113;DHT22;17763;48.730;9.136;2023-05-10T05:13:20;12.30;99.90
31113;DHT22;17763;48.730;9.136;2023-05-10T05:15:46;12.30;99.90
31113;DHT22;17763;48.730;9.136;2023-05-10T05:18:14;12.40;99.90
31113;DHT22;17763;48.730;9.136;2023-05-10T05:20:39;12.40;99.90
31113;DHT22;17763;48.730;9.136;2023-05-10T05:23:06;12.50;99.90
31113;DHT22;17763;48.730;9.136;2023-05-10T05:25:31;12.50;99.90
31113;DHT22;17763;48.730;9.136;2023-05-10T05:27:57;12.60;99.90
31113;DHT22;17763;48.730;9.136;2023-05-10T05:30:23;12.60;99.90
31113;DHT22;17763;48.730;9.136;2023-05-10T05:32:48;12.70;99.90
31113;DHT22;17763;48.730;9.136;2023-05-10T05:35:14;12.70;99.90
31113;DHT22;17763;48.730;9.136;2023-05-10T05:37:40;12.80;99.90
31113;DHT22;17763;48.730;9.136;2023-05-10T05:40:06;12.80;99.90
31113;DHT22;17763;48.730;9.136;2023-05-10T05:42:32;12.80;99.90
31113;DHT22;17763;48.730;9.136;2023-05-10T05:44:58;12.90;99.90
31113;DHT22;17763;48.730;9.136;2023-05-10T05:47:24;12.90;99.90
31113;DHT22;17763;48.730;9.136;2023-05-10T05:49:49;12.90;99.90
31113;DHT22;17763;48.730;9.136;2023-05-10T05:52:15;12.90;99.90
31113;DHT22;17763;48.730;9.136;2023-05-10T05:54:41;13.00;99.90
31113;DHT22;17763;48.730;9.136;2023-05-10T05:57:09;13.10;99.90
31113;DHT22;17763;48.730;9.136;2023-05-10T05:59:35;13.10;99.90
31113;DHT22;17763;48.730;9.136;2023-05-10T06:02:01;13.20;99.90
31113;DHT22;17763;48.730;9.136;2023-05-10T06:04:26;13.20;99.90
31113;DHT22;17763;48.730;9.136;2023-05-10T06:06:52;13.20;99.90
31113;DHT22;17763;48.730;9.136;2023-05-10T06:09:18;13.30;99.90
31113;DHT22;17763;48.730;9.136;2023-05-10T06:11:44;13.40;99.90
31113;DHT22;17763;48.730;9.136;2023-05-10T06:14:14;13.40;99.90
31113;DHT22;17763;48.730;9.136;2023-05-10T06:16:40;13.40;99.90
31113;DHT22;17763;48.730;9.136;2023-05-10T06:19:06;13.40;99.90
31113;DHT22;17763;48.730;9.136;2023-05-10T06:21:31;13.40;99.90
31113;DHT22;17763;48.730;9.136;2023-05-10T06:23:57;13.30;99.90
31113;DHT22;17763;48.730;9.136;2023-05-10T06:26:23;13.20;99.90
31113;DHT22;17763;48.730;9.136;2023-05-10T06:28:49;13.10;99.90
31113;DHT22;17763;48.730;9.136;2023-05-10T06:31:14;13.10;99.90
31113;DHT22;17763;48.730;9.136;2023-05-10T06:33:41;13.10;99.90
31113;DHT22;17763;48.730;9.136;2023-05-10T06:36:10;13.10;99.90
31113;DHT22;17763;48.730;9.136;2023-05-10T06:38:36;13.10;99.90
31113;DHT22;17763;48.730;9.136;2023-05-10T06:41:01;13.10;99.90
31113;DHT22;17763;48.730;9.136;2023-05-10T06:43:27;13.10;99.90
31113;DHT22;17763;48.730;9.136;2023-05-10T06:45:55;13.10;99.90
31113;DHT22;17763;48.730;9.136;2023-05-10T06:48:21;13.10;99.90
31113;DHT22;17763;48.730;9.136;2023-05-10T06:50:47;13.10;99.90
31113;DHT22;17763;48.730;9.136;2023-05-10T06:53:12;13.10;99.90
31113;DHT22;17763;48.730;9.136;2023-05-10T06:55:40;13.10;99.90
31113;DHT22;17763;48.730;9.136;2023-05-10T06:58:06;13.00;99.90
31113;DHT22;17763;48.730;9.136;2023-05-10T07:00:32;13.00;99.90
31113;DHT22;17763;48.730;9.136;2023-05-10T07:02:57;13.20;99.90
31113;DHT22;17763;48.730;9.136;2023-05-10T07:05:23;13.30;99.90
31113;DHT22;17763;48.730;9.136;2023-05-10T07:07:49;13.30;99.90
31113;DHT22;17763;48.730;9.136;2023-05-10T07:10:15;13.40;99.90
31113;DHT22;17763;48.730;9.136;2023-05-10T07:12:41;13.60;99.90
31113;DHT22;17763;48.730;9.136;2023-05-10T07:15:07;13.70;99.90
31113;DHT22;17763;48.730;9.136;2023-05-10T07:17:33;13.90;99.90
31113;DHT22;17763;48.730;9.136;2023-05-10T07:19:59;14.00;99.90
31113;DHT22;17763;48.730;9.136;2023-05-10T07:22:25;14.10;99.90
31113;DHT22;17763;48.730;9.136;2023-05-10T07:24:51;14.20;99.90
31113;DHT22;17763;48.730;9.136;2023-05-10T07:27:17;14.20;99.90
31113;DHT22;17763;48.730;9.136;2023-05-10T07:29:45;14.30;99.90
31113;DHT22;17763;48.730;9.136;2023-05-10T07:32:13;14.40;99.90
31113;DHT22;17763;48.730;9.136;2023-05-10T07:34:38;14.40;99.90
31113;DHT22;17763;48.730;9.136;2023-05-10T07:37:04;14.40;99.90
31113;DHT22;17763;48.730;9.136;2023-05-10T07:39:31;14.50;99.90
31113;DHT22;17763;48.730;9.136;2023-05-10T07:41:59;14.60;99.90
31113;DHT22;17763;48.730;9.136;2023-05-10T07:44:24;14.70;99.90
31113;DHT22;17763;48.730;9.136;2023-05-10T07:46:50;14.70;99.90
31113;DHT22;17763;48.730;9.136;2023-05-10T07:49:16;14.60;99.90
31113;DHT22;17763;48.730;9.136;2023-05-10T07:51:41;14.60;99.90
31113;DHT22;17763;48.730;9.136;2023-05-10T07:54:07;14.60;99.90
31113;DHT22;17763;48.730;9.136;2023-05-10T07:56:33;14.50;99.90
31113;DHT22;17763;48.730;9.136;2023-05-10T07:59:00;14.50;99.90
31113;DHT22;17763;48.730;9.136;2023-05-10T08:01:26;14.50;99.90
31113;DHT22;17763;48.730;9.136;2023-05-10T08:03:52;14.60;99.90
31113;DHT22;17763;48.730;9.136;2023-05-10T08:06:19;14.60;99.90
31113;DHT22;17763;48.730;9.136;2023-05-10T08:08:48;14.70;99.90
31113;DHT22;17763;48.730;9.136;2023-05-10T08:11:19;14.70;99.90
31113;DHT22;17763;48.730;9.136;2023-05-10T08:13:49;14.60;99.90
31113;DHT22;17763;48.730;9.136;2023-05-10T08:16:15;14.60;99.90
31113;DHT22;17763;48.730;9.136;2023-05-10T08:18:43;14.50;99.90
31113;DHT22;17763;48.730;9.136;2023-05-10T08:21:08;14.40;99.90
31113;DHT22;17763;48.730;9.136;2023-05-10T08:23:36;14.50;99.90
31113;DHT22;17763;48.730;9.136;2023-05-10T08:26:02;14.60;99.90
31113;DHT22;17763;48.730;9.136;2023-05-10T08:28:28;14.50;99.90
31113;DHT22;17763;48.730;9.136;2023-05-10T08:30:54;14.50;99.90
31113;DHT22;17763;48.730;9.136;2023-05-10T08:33:19;14.60;99.90
31113;DHT22;17763;48.730;9.136;2023-05-10T08:35:45;14.70;99.90
31113;DHT22;17763;48.730;9.136;2023-05-10T08:38:11;14.70;99.90
31113;DHT22;17763;48.730;9.136;2023-05-10T08:40:38;14.80;99.90
31113;DHT22;17763;48.730;9.136;2023-05-10T08:43:07;14.80;99.90
31113;DHT22;17763;48.730;9.136;2023-05-10T08:45:37;15.00;99.90
31113;DHT22;17763;48.730;9.136;2023-05-10T08:48:06;15.00;99.90
31113;DHT22;17763;48.730;9.136;2023-05-10T08:50:34;15.00;99.90
31113;DHT22;17763;48.730;9.136;2023-05-10T08:53:04;15.00;99.90
31113;DHT22;17763;48.730;9.136;2023-05-10T08:55:32;14.90;99.90
31113;DHT22;17763;48.730;9.136;2023-05-10T08:57:59;14.90;99.90
31113;DHT22;17763;48.730;9.136;2023-05-10T09:00:26;14.90;99.90
31113;DHT22;17763;48.730;9.136;2023-05-10T09:02:52;15.00;99.90
31113;DHT22;17763;48.730;9.136;2023-05-10T09:05:18;15.00;99.90
31113;DHT22;17763;48.730;9.136;2023-05-10T09:07:44;14.90;99.90
31113;DHT22;17763;48.730;9.136;2023-05-10T09:10:11;14.90;99.90
31113;DHT22;17763;48.730;9.136;2023-05-10T09:12:40;15.00;99.90
31113;DHT22;17763;48.730;9.136;2023-05-10T09:15:07;15.00;99.90
31113;DHT22;17763;48.730;9.136;2023-05-10T09:17:36;14.90;99.90
31113;DHT22;17763;48.730;9.136;2023-05-10T09:20:03;14.90;99.90
31113;DHT22;17763;48.730;9.136;2023-05-10T09:22:34;14.70;99.90
31113;DHT22;17763;48.730;9.136;2023-05-10T09:25:08;14.50;99.90
31113;DHT22;17763;48.730;9.136;2023-05-10T09:27:35;14.40;99.90
31113;DHT22;17763;48.730;9.136;2023-05-10T09:30:01;14.30;99.90
31113;DHT22;17763;48.730;9.136;2023-05-10T09:32:40;14.30;99.90
31113;DHT22;17763;48.730;9.136;2023-05-10T09:35:19;14.30;99.90
31113;DHT22;17763;48.730;9.136;2023-05-10T09:37:50;14.40;99.90
31113;DHT22;17763;48.730;9.136;2023-05-10T09:40:18;14.50;99.90
31113;DHT22;17763;48.730;9.136;2023-05-10T09:43:01;14.60;99.90
31113;DHT22;17763;48.730;9.136;2023-05-10T09:45:29;14.70;99.90
31113;DHT22;17763;48.730;9.136;2023-05-10T09:47:58;14.90;99.90
31113;DHT22;17763;48.730;9.136;2023-05-10T09:50:25;15.00;99.90
31113;DHT22;17763;48.730;9.136;2023-05-10T09:55:22;15.20;99.90
31113;DHT22;17763;48.730;9.136;2023-05-10T09:57:49;15.40;99.90
31113;DHT22;17763;48.730;9.136;2023-05-10T10:00:19;15.60;99.90
31113;DHT22;17763;48.730;9.136;2023-05-10T10:02:55;15.80;99.90
31113;DHT22;17763;48.730;9.136;2023-05-10T10:05:35;15.70;99.90
31113;DHT22;17763;48.730;9.136;2023-05-10T10:08:03;15.90;99.90
31113;DHT22;17763;48.730;9.136;2023-05-10T10:10:29;16.00;99.90
31113;DHT22;17763;48.730;9.136;2023-05-10T10:12:55;16.20;99.90
31113;DHT22;17763;48.730;9.136;2023-05-10T10:15:21;16.20;99.90
31113;DHT22;17763;48.730;9.136;2023-05-10T10:17:48;16.10;99.90
31113;DHT22;17763;48.730;9.136;2023-05-10T10:20:15;16.00;99.90
31113;DHT22;17763;48.730;9.136;2023-05-10T10:22:41;15.90;99.90
31113;DHT22;17763;48.730;9.136;2023-05-10T10:25:10;15.70;99.90
31113;DHT22;17763;48.730;9.136;2023-05-10T10:35:55;15.60;99.90
31113;DHT22;17763;48.730;9.136;2023-05-10T10:38:22;15.70;99.90
31113;DHT22;17763;48.730;9.136;2023-05-10T10:40:48;15.80;99.90
31113;DHT22;17763;48.730;9.136;2023-05-10T10:43:27;15.90;99.90
31113;DHT22;17763;48.730;9.136;2023-05-10T10:46:14;16.00;99.90
31113;DHT22;17763;48.730;9.136;2023-05-10T10:48:43;16.10;99.90
31113;DHT22;17763;48.730;9.136;2023-05-10T10:51:13;16.00;99.90
31113;DHT22;17763;48.730;9.136;2023-05-10T10:53:40;16.00;99.90
31113;DHT22;17763;48.730;9.136;2023-05-10T10:56:13;15.90;99.90
31113;DHT22;17763;48.730;9.136;2023-05-10T10:58:41;15.50;99.90
31113;DHT22;17763;48.730;9.136;2023-05-10T11:01:15;15.10;99.90
31113;DHT22;17763;48.730;9.136;2023-05-10T11:06:34;14.80;99.90
31113;DHT22;17763;48.730;9.136;2023-05-10T11:09:11;14.90;99.90
31113;DHT22;17763;48.730;9.136;2023-05-10T11:11:53;14.90;99.90
31113;DHT22;17763;48.730;9.136;2023-05-10T11:14:21;14.70;99.90
31113;DHT22;17763;48.730;9.136;2023-05-10T11:16:50;14.60;99.90
31113;DHT22;17763;48.730;9.136;2023-05-10T11:19:17;14.60;99.90
31113;DHT22;17763;48.730;9.136;2023-05-10T11:24:14;14.60;99.90
31113;DHT22;17763;48.730;9.136;2023-05-10T11:26:40;14.70;99.90
31113;DHT22;17763;48.730;9.136;2023-05-10T11:29:06;14.60;99.90
31113;DHT22;17763;48.730;9.136;2023-05-10T11:31:32;14.60;99.90
31113;DHT22;17763;48.730;9.136;2023-05-10T11:33:59;14.60;99.90
31113;DHT22;17763;48.730;9.136;2023-05-10T11:36:29;14.60;99.90
31113;DHT22;17763;48.730;9.136;2023-05-10T11:39:01;14.70;99.90
31113;DHT22;17763;48.730;9.136;2023-05-10T11:41:28;14.70;99.90
31113;DHT22;17763;48.730;9.136;2023-05-10T11:43:56;14.70;99.90
31113;DHT22;17763;48.730;9.136;2023-05-10T11:46:23;14.70;99.90
31113;DHT22;17763;48.730;9.136;2023-05-10T11:48:52;14.70;99.90
31113;DHT22;17763;48.730;9.136;2023-05-10T11:51:24;14.70;99.90
31113;DHT22;17763;48.730;9.136;2023-05-10T11:53:56;14.70;99.90
31113;DHT22;17763;48.730;9.136;2023-05-10T11:56:22;14.60;99.90
31113;DHT22;17763;48.730;9.136;2023-05-10T11:58:58;14.50;99.90
31113;DHT22;17763;48.730;9.136;2023-05-10T12:01:26;14.40;99.90
31113;DHT22;17763;48.730;9.136;2023-05-10T12:03:54;14.40;99.90
31113;DHT22;17763;48.730;9.136;2023-05-10T12:06:28;14.60;99.90
31113;DHT22;17763;48.730;9.136;2023-05-10T12:08:57;14.70;99.90
31113;DHT22;17763;48.730;9.136;2023-05-10T12:11:28;14.80;99.90
31113;DHT22;17763;48.730;9.136;2023-05-10T12:13:54;14.90;99.90
31113;DHT22;17763;48.730;9.136;2023-05-10T12:16:22;15.10;99.90
31113;DHT22;17763;48.730;9.136;2023-05-10T12:18:49;15.10;99.90
31113;DHT22;17763;48.730;9.136;2023-05-10T12:21:16;15.20;99.90
31113;DHT22;17763;48.730;9.136;2023-05-10T12:23:46;15.50;99.90
31113;DHT22;17763;48.730;9.136;2023-05-10T12:26:12;15.30;99.90
31113;DHT22;17763;48.730;9.136;2023-05-10T12:28:38;15.40;99.90
31113;DHT22;17763;48.730;9.136;2023-05-10T12:31:07;15.30;99.90
31113;DHT22;17763;48.730;9.136;2023-05-10T12:33:41;15.30;99.90
31113;DHT22;17763;48.730;9.136;2023-05-10T12:36:12;15.10;99.90
31113;DHT22;17763;48.730;9.136;2023-05-10T12:38:42;15.20;99.90
31113;DHT22;17763;48.730;9.136;2023-05-10T12:41:10;15.40;99.90
31113;DHT22;17763;48.730;9.136;2023-05-10T12:43:41;15.30;99.90
31113;DHT22;17763;48.730;9.136;2023-05-10T12:46:14;15.40;99.90
31113;DHT22;17763;48.730;9.136;2023-05-10T12:48:44;15.30;99.90
31113;DHT22;17763;48.730;9.136;2023-05-10T12:51:17;15.10;99.90
31113;DHT22;17763;48.730;9.136;2023-05-10T12:53:47;15.00;99.90
31113;DHT22;17763;48.730;9.136;2023-05-10T12:56:13;15.00;99.90
31113;DHT22;17763;48.730;9.136;2023-05-10T12:58:39;15.00;99.90
31113;DHT22;17763;48.730;9.136;2023-05-10T13:01:05;14.90;99.90
31113;DHT22;17763;48.730;9.136;2023-05-10T13:03:31;14.80;99.90
31113;DHT22;17763;48.730;9.136;2023-05-10T13:05:57;15.00;99.90
31113;DHT22;17763;48.730;9.136;2023-05-10T13:08:22;15.00;99.90
31113;DHT22;17763;48.730;9.136;2023-05-10T13:10:48;15.20;99.90
31113;DHT22;17763;48.730;9.136;2023-05-10T13:13:14;15.40;99.90
31113;DHT22;17763;48.730;9.136;2023-05-10T13:15:40;15.60;99.90
31113;DHT22;17763;48.730;9.136;2023-05-10T13:18:06;15.70;99.90
31113;DHT22;17763;48.730;9.136;2023-05-10T13:20:31;15.90;99.90
31113;DHT22;17763;48.730;9.136;2023-05-10T13:22:57;16.00;99.90
31113;DHT22;17763;48.730;9.136;2023-05-10T13:25:25;15.90;99.70
31113;DHT22;17763;48.730;9.136;2023-05-10T13:27:51;15.90;99.90
31113;DHT22;17763;48.730;9.136;2023-05-10T13:30:16;15.80;99.00
31113;DHT22;17763;48.730;9.136;2023-05-10T13:32:44;15.80;98.50
31113;DHT22;17763;48.730;9.136;2023-05-10T13:35:10;15.90;98.70
31113;DHT22;17763;48.730;9.136;2023-05-10T13:37:39;16.00;98.50
31113;DHT22;17763;48.730;9.136;2023-05-10T13:40:07;16.10;99.30
31113;DHT22;17763;48.730;9.136;2023-05-10T13:42:33;16.00;99.90
31113;DHT22;17763;48.730;9.136;2023-05-10T13:45:00;16.00;98.80
31113;DHT22;17763;48.730;9.136;2023-05-10T13:47:27;15.80;98.80
31113;DHT22;17763;48.730;9.136;2023-05-10T13:49:53;15.70;99.10
31113;DHT22;17763;48.730;9.136;2023-05-10T13:52:18;15.80;99.90
31113;DHT22;17763;48.730;9.136;2023-05-10T13:54:44;15.90;99.90
31113;DHT22;17763;48.730;9.136;2023-05-10T13:57:12;16.10;99.90
31113;DHT22;17763;48.730;9.136;2023-05-10T13:59:42;16.30;98.60
31113;DHT22;17763;48.730;9.136;2023-05-10T14:02:10;16.20;97.90
31113;DHT22;17763;48.730;9.136;2023-05-10T14:04:38;16.50;98.70
31113;DHT22;17763;48.730;9.136;2023-05-10T14:07:06;16.30;96.30
31113;DHT22;17763;48.730;9.136;2023-05-10T14:09:32;16.30;97.10
31113;DHT22;17763;48.730;9.136;2023-05-10T14:11:58;16.20;97.40
31113;DHT22;17763;48.730;9.136;2023-05-10T14:14:24;16.30;98.10
31113;DHT22;17763;48.730;9.136;2023-05-10T14:16:52;16.40;97.90
31113;DHT22;17763;48.730;9.136;2023-05-10T14:19:18;16.30;96.10
31113;DHT22;17763;48.730;9.136;2023-05-10T14:21:43;16.30;97.00
31113;DHT22;17763;48.730;9.136;2023-05-10T14:24:09;16.30;95.20
31113;DHT22;17763;48.730;9.136;2023-05-10T14:26:38;16.30;94.90
31113;DHT22;17763;48.730;9.136;2023-05-10T14:29:03;16.40;95.00
31113;DHT22;17763;48.730;9.136;2023-05-10T14:31:29;16.50;95.80
31113;DHT22;17763;48.730;9.136;2023-05-10T14:33:57;16.60;95.30
31113;DHT22;17763;48.730;9.136;2023-05-10T14:36:25;16.60;93.40
31113;DHT22;17763;48.730;9.136;2023-05-10T14:38:53;16.70;93.20
31113;DHT22;17763;48.730;9.136;2023-05-10T14:41:19;16.60;92.40
31113;DHT22;17763;48.730;9.136;2023-05-10T14:43:45;16.50;92.40
31113;DHT22;17763;48.730;9.136;2023-05-10T14:46:11;16.40;92.70
31113;DHT22;17763;48.730;9.136;2023-05-10T14:48:39;16.40;93.90
31113;DHT22;17763;48.730;9.136;2023-05-10T14:51:09;16.50;93.00
31113;DHT22;17763;48.730;9.136;2023-05-10T14:53:37;16.50;93.50
31113;DHT22;17763;48.730;9.136;2023-05-10T14:56:03;16.50;92.00
31113;DHT22;17763;48.730;9.136;2023-05-10T14:58:28;16.40;93.60
31113;DHT22;17763;48.730;9.136;2023-05-10T15:00:58;16.40;92.70
31113;DHT22;17763;48.730;9.136;2023-05-10T15:03:23;16.50;93.60
31113;DHT22;17763;48.730;9.136;2023-05-10T15:05:51;16.50;92.60
31113;DHT22;17763;48.730;9.136;2023-05-10T15:08:18;16.60;92.70
31113;DHT22;17763;48.730;9.136;2023-05-10T15:10:43;16.60;92.50
31113;DHT22;17763;48.730;9.136;2023-05-10T15:13:09;16.70;92.40
31113;DHT22;17763;48.730;9.136;2023-05-10T15:15:35;16.70;92.20
31113;DHT22;17763;48.730;9.136;2023-05-10T15:18:00;16.70;91.20
31113;DHT22;17763;48.730;9.136;2023-05-10T15:20:27;16.70;92.30
31113;DHT22;17763;48.730;9.136;2023-05-10T15:22:55;16.60;91.20
31113;DHT22;17763;48.730;9.136;2023-05-10T15:25:21;16.60;91.20
31113;DHT22;17763;48.730;9.136;2023-05-10T15:27:49;16.40;91.50
31113;DHT22;17763;48.730;9.136;2023-05-10T15:30:14;16.40;91.80
31113;DHT22;17763;48.730;9.136;2023-05-10T15:32:40;16.30;91.40
31113;DHT22;17763;48.730;9.136;2023-05-10T15:35:09;16.40;92.80
31113;DHT22;17763;48.730;9.136;2023-05-10T15:37:36;16.50;93.70
31113;DHT22;17763;48.730;9.136;2023-05-10T15:40:04;16.50;93.10
31113;DHT22;17763;48.730;9.136;2023-05-10T15:42:30;16.50;92.20
31113;DHT22;17763;48.730;9.136;2023-05-10T15:44:58;16.60;91.60
31113;DHT22;17763;48.730;9.136;2023-05-10T15:47:29;16.70;93.80
31113;DHT22;17763;48.730;9.136;2023-05-10T15:49:57;16.70;92.30
31113;DHT22;17763;48.730;9.136;2023-05-10T15:52:23;16.70;92.50
31113;DHT22;17763;48.730;9.136;2023-05-10T15:54:49;16.80;92.70
31113;DHT22;17763;48.730;9.136;2023-05-10T15:57:18;16.60;90.50
31113;DHT22;17763;48.730;9.136;2023-05-10T15:59:44;16.70;90.20
31113;DHT22;17763;48.730;9.136;2023-05-10T16:02:10;16.80;91.30
31113;DHT22;17763;48.730;9.136;2023-05-10T16:04:36;16.70;91.00